createdAt,value
2019-02-14T00:00:40.161Z,22.43
2019-02-14T00:03:08.560Z,21.40
2019-02-14T00:05:36.979Z,24.80
2019-02-14T00:08:05.379Z,23.83
2019-02-14T00:10:33.779Z,24.20
2019-02-14T00:13:02.199Z,27.80
2019-02-14T00:15:30.595Z,23.07
2019-02-14T00:17:59.020Z,22.60
2019-02-14T00:20:27.430Z,23.03
2019-02-14T00:22:55.933Z,22.10
2019-02-14T00:25:24.340Z,24.10
2019-02-14T00:27:52.766Z,20.00
2019-02-14T00:30:21.183Z,20.27
2019-02-14T00:32:49.587Z,27.03
2019-02-14T00:35:24.892Z,22.83
2019-02-14T00:37:48.102Z,22.80
2019-02-14T00:40:16.536Z,17.37
2019-02-14T00:42:44.956Z,23.10
2019-02-14T00:45:13.366Z,21.73
2019-02-14T00:47:41.764Z,24.60
2019-02-14T00:50:10.184Z,24.47
2019-02-14T00:52:38.581Z,22.52
2019-02-14T00:55:07.077Z,26.07
2019-02-14T00:57:35.480Z,20.47
2019-02-14T01:00:06.074Z,23.80
2019-02-14T01:02:34.540Z,22.80
2019-02-14T01:05:02.956Z,20.30
2019-02-14T01:07:31.355Z,24.60
2019-02-14T01:09:59.772Z,19.03
2019-02-14T01:12:28.186Z,24.43
2019-02-14T01:14:56.588Z,29.17
2019-02-14T01:17:25.070Z,23.70
2019-02-14T01:19:53.482Z,22.00
2019-02-14T01:22:21.900Z,24.43
2019-02-14T01:24:50.294Z,25.17
2019-02-14T01:27:18.719Z,19.50
2019-02-14T01:29:47.129Z,22.33
2019-02-14T01:32:15.879Z,20.43
2019-02-14T01:34:44.284Z,25.40
2019-02-14T01:37:12.681Z,20.57
2019-02-14T01:39:41.078Z,21.47
2019-02-14T01:42:09.482Z,23.20
2019-02-14T01:44:37.870Z,21.60
2019-02-14T01:47:07.919Z,27.43
2019-02-14T01:49:36.466Z,25.40
2019-02-14T01:52:04.881Z,23.37
2019-02-14T01:54:33.293Z,22.17
2019-02-14T01:57:01.699Z,23.70
2019-02-14T01:59:30.099Z,21.97
2019-02-14T02:01:58.571Z,24.63
2019-02-14T02:04:27.059Z,21.30
2019-02-14T02:06:55.449Z,20.90
2019-02-14T02:09:23.867Z,22.70
2019-02-14T02:11:52.279Z,21.83
2019-02-14T02:14:20.710Z,25.67
2019-02-14T02:16:49.341Z,19.60
2019-02-14T02:19:18.037Z,20.70
2019-02-14T02:21:46.452Z,21.10
2019-02-14T02:24:14.861Z,24.93
2019-02-14T02:26:43.263Z,25.00
2019-02-14T02:29:11.687Z,25.23
2019-02-14T02:31:40.099Z,32.37
2019-02-14T02:34:08.520Z,24.90
2019-02-14T02:36:36.942Z,20.63
2019-02-14T02:39:07.183Z,22.53
2019-02-14T02:41:35.920Z,22.63
2019-02-14T02:44:04.323Z,20.83
2019-02-14T02:46:32.748Z,20.60
2019-02-14T02:49:01.142Z,30.83
2019-02-14T02:51:29.566Z,25.03
2019-02-14T02:53:57.962Z,27.10
2019-02-14T02:56:26.444Z,18.77
2019-02-14T02:58:54.843Z,24.20
2019-02-14T03:01:23.292Z,24.17
2019-02-14T03:03:51.694Z,24.33
2019-02-14T03:06:20.211Z,20.73
2019-02-14T03:08:48.682Z,21.70
2019-02-14T03:11:17.099Z,21.73
2019-02-14T03:13:45.504Z,17.67
2019-02-14T03:16:13.924Z,21.03
2019-02-14T03:18:42.339Z,22.70
2019-02-14T03:21:10.767Z,22.40
2019-02-14T03:23:39.171Z,20.50
2019-02-14T03:26:07.590Z,20.80
2019-02-14T03:28:36.002Z,21.00
2019-02-14T03:31:04.416Z,24.30
2019-02-14T03:33:32.828Z,22.97
2019-02-14T03:36:01.245Z,22.00
2019-02-14T03:38:29.667Z,22.93
2019-02-14T03:40:58.073Z,26.57
2019-02-14T03:43:26.485Z,23.30
2019-02-14T03:45:54.914Z,22.40
2019-02-14T03:48:23.310Z,19.37
2019-02-14T03:50:51.811Z,22.87
2019-02-14T03:53:20.227Z,23.87
2019-02-14T03:55:48.637Z,21.33
2019-02-14T03:58:17.047Z,23.10
2019-02-14T04:00:45.466Z,26.23
2019-02-14T04:03:13.883Z,22.50
2019-02-14T04:05:42.309Z,22.40
2019-02-14T04:08:10.721Z,23.62
2019-02-14T04:10:39.139Z,22.67
2019-02-14T04:13:07.543Z,20.83
2019-02-14T04:15:36.012Z,24.67
2019-02-14T04:18:04.487Z,19.30
2019-02-14T04:20:32.904Z,20.83
2019-02-14T04:23:01.333Z,24.17
2019-02-14T04:25:29.759Z,18.92
2019-02-14T04:27:58.168Z,18.87
2019-02-14T04:30:26.584Z,23.13
2019-02-14T04:32:55.007Z,25.20
2019-02-14T04:35:23.425Z,21.20
2019-02-14T04:37:51.976Z,21.48
2019-02-14T04:40:20.387Z,27.17
2019-02-14T04:42:48.816Z,20.27
2019-02-14T04:45:17.236Z,21.55
2019-02-14T04:47:45.668Z,20.85
2019-02-14T04:50:14.092Z,17.60
2019-02-14T04:52:42.517Z,20.70
2019-02-14T04:55:11.476Z,21.30
2019-02-14T04:57:39.964Z,21.60
2019-02-14T05:00:13.064Z,23.27
2019-02-14T05:02:41.479Z,29.37
2019-02-14T05:05:10.129Z,21.33
2019-02-14T05:07:38.561Z,19.73
2019-02-14T05:10:09.085Z,22.00
2019-02-14T05:12:37.503Z,19.17
2019-02-14T05:15:07.551Z,24.40
2019-02-14T05:17:35.980Z,19.63
2019-02-14T05:20:11.652Z,22.48
2019-02-14T05:22:40.082Z,24.98
2019-02-14T05:25:09.335Z,25.17
2019-02-14T05:27:37.760Z,19.30
2019-02-14T05:30:12.131Z,31.68
2019-02-14T05:32:40.555Z,132.63
2019-02-14T05:35:28.300Z,69.77
2019-02-14T05:37:56.749Z,25.82
2019-02-14T05:40:25.155Z,31.23
2019-02-14T05:42:53.575Z,32.33
2019-02-14T05:45:21.997Z,31.42
2019-02-14T05:47:50.427Z,23.30
2019-02-14T05:50:19.315Z,24.80
2019-02-14T05:52:47.739Z,34.38
2019-02-14T05:55:16.175Z,22.98
2019-02-14T05:57:44.598Z,31.40
2019-02-14T06:00:15.105Z,19.52
2019-02-14T06:02:43.543Z,25.20
2019-02-14T06:05:11.965Z,25.62
2019-02-14T06:07:40.394Z,43.38
2019-02-14T06:10:12.264Z,59.60
2019-02-14T06:12:40.695Z,104.83
2019-02-14T06:15:11.636Z,38.02
2019-02-14T06:17:40.058Z,32.53
2019-02-14T06:20:12.439Z,28.62
2019-02-14T06:22:40.874Z,21.85
2019-02-14T06:25:13.453Z,26.93
2019-02-14T06:27:41.897Z,22.32
2019-02-14T06:30:15.280Z,26.82
2019-02-14T06:32:43.691Z,30.20
2019-02-14T06:35:12.248Z,26.75
2019-02-14T06:37:40.742Z,27.55
2019-02-14T06:40:13.781Z,30.85
2019-02-14T06:42:42.222Z,24.77
2019-02-14T06:45:17.999Z,25.92
2019-02-14T06:47:46.437Z,26.60
2019-02-14T06:50:14.847Z,21.15
2019-02-14T06:52:43.265Z,23.45
2019-02-14T06:55:11.743Z,23.83
2019-02-14T06:57:40.158Z,24.90
2019-02-14T07:00:16.327Z,26.48
2019-02-14T07:02:44.750Z,41.05
2019-02-14T07:05:13.240Z,47.10
2019-02-14T07:07:41.654Z,39.50
2019-02-14T07:10:12.001Z,27.20
2019-02-14T07:12:40.395Z,31.60
2019-02-14T07:15:13.854Z,34.97
2019-02-14T07:17:42.260Z,44.53
2019-02-14T07:20:17.632Z,58.90
2019-02-14T07:22:46.030Z,42.40
2019-02-14T07:25:14.464Z,37.40
2019-02-14T07:27:42.900Z,33.48
2019-02-14T07:30:19.578Z,51.73
2019-02-14T07:32:47.982Z,47.05
2019-02-14T07:35:16.412Z,40.97
2019-02-14T07:37:44.814Z,34.40
2019-02-14T07:40:14.491Z,29.80
2019-02-14T07:42:43.038Z,35.98
2019-02-14T07:45:14.163Z,37.43
2019-02-14T07:47:42.695Z,32.90
2019-02-14T07:50:12.647Z,28.73
2019-02-14T07:52:41.064Z,31.50
2019-02-14T07:55:11.707Z,30.73
2019-02-14T07:57:40.195Z,30.93
2019-02-14T08:00:18.655Z,35.03
2019-02-14T08:02:47.075Z,29.33
2019-02-14T08:05:15.550Z,32.60
2019-02-14T08:07:43.943Z,33.70
2019-02-14T08:10:15.080Z,34.30
2019-02-14T08:12:43.471Z,40.47
2019-02-14T08:15:13.534Z,36.80
2019-02-14T08:17:42.016Z,31.03
2019-02-14T08:20:12.576Z,33.63
2019-02-14T08:22:40.985Z,28.57
2019-02-14T08:25:11.529Z,37.87
2019-02-14T08:27:39.940Z,29.63
2019-02-14T08:30:11.436Z,32.37
2019-02-14T08:32:39.845Z,32.33
2019-02-14T08:35:08.594Z,27.93
2019-02-14T08:37:45.138Z,34.43
2019-02-14T08:40:18.944Z,27.67
2019-02-14T08:42:47.362Z,25.07
2019-02-14T08:45:15.757Z,27.60
2019-02-14T08:47:44.180Z,32.50
2019-02-14T08:50:12.595Z,30.13
2019-02-14T08:52:40.999Z,30.30
2019-02-14T08:55:10.304Z,28.13
2019-02-14T08:57:38.807Z,31.27
2019-02-14T09:00:10.307Z,27.70
2019-02-14T09:02:38.712Z,26.50
2019-02-14T09:05:08.417Z,34.53
2019-02-14T09:07:36.799Z,31.70
2019-02-14T09:10:11.174Z,26.00
2019-02-14T09:12:39.572Z,23.47
2019-02-14T09:15:10.920Z,26.20
2019-02-14T09:17:39.333Z,29.20
2019-02-14T09:20:13.624Z,23.30
2019-02-14T09:22:42.023Z,32.43
2019-02-14T09:25:10.440Z,24.63
2019-02-14T09:27:38.846Z,23.90
2019-02-14T09:30:10.215Z,29.60
2019-02-14T09:32:38.686Z,24.67
2019-02-14T09:35:08.752Z,20.50
2019-02-14T09:37:37.164Z,22.63
2019-02-14T09:40:13.620Z,27.27
2019-02-14T09:42:42.169Z,27.00
2019-02-14T09:45:12.436Z,32.07
2019-02-14T09:47:40.821Z,23.77
2019-02-14T09:50:16.437Z,23.07
2019-02-14T09:52:44.892Z,27.40
2019-02-14T09:55:14.194Z,23.13
2019-02-14T09:57:42.586Z,16.07
2019-02-14T10:00:18.541Z,25.67
2019-02-14T10:02:46.947Z,28.93
2019-02-14T10:05:16.260Z,23.23
2019-02-14T10:07:44.654Z,21.23
2019-02-14T10:10:20.876Z,23.00
2019-02-14T10:12:49.279Z,34.23
2019-02-14T10:15:17.700Z,24.60
2019-02-14T10:17:46.101Z,29.07
2019-02-14T10:20:16.039Z,19.10
2019-02-14T10:22:44.425Z,22.70
2019-02-14T10:25:13.391Z,22.23
2019-02-14T10:27:41.841Z,18.00
2019-02-14T10:30:24.208Z,17.20
2019-02-14T10:32:52.603Z,20.80
2019-02-14T10:35:21.016Z,23.07
2019-02-14T10:37:49.415Z,16.00
2019-02-14T10:40:17.996Z,15.73
2019-02-14T10:42:46.467Z,14.23
2019-02-14T10:45:17.033Z,18.63
2019-02-14T10:47:45.431Z,18.40
2019-02-14T10:50:13.856Z,16.27
2019-02-14T10:52:42.269Z,18.07
2019-02-14T10:55:12.284Z,17.23
2019-02-14T10:57:40.661Z,17.30
2019-02-14T11:00:21.109Z,19.37
2019-02-14T11:02:49.592Z,20.43
2019-02-14T11:05:18.439Z,19.60
2019-02-14T11:07:46.923Z,17.13
2019-02-14T11:10:16.111Z,13.40
2019-02-14T11:12:44.594Z,15.27
2019-02-14T11:15:15.597Z,16.97
2019-02-14T11:17:44.011Z,17.53
2019-02-14T11:20:14.244Z,16.80
2019-02-14T11:22:42.650Z,22.90
2019-02-14T11:25:14.090Z,18.57
2019-02-14T11:27:42.506Z,16.43
2019-02-14T11:30:13.329Z,14.20
2019-02-14T11:32:41.734Z,14.13
2019-02-14T11:35:10.688Z,19.57
2019-02-14T11:37:39.172Z,15.60
2019-02-14T11:40:10.312Z,18.20
2019-02-14T11:42:38.795Z,13.47
2019-02-14T11:45:13.077Z,14.07
2019-02-14T11:47:41.489Z,13.63
2019-02-14T11:50:11.438Z,18.57
2019-02-14T11:52:39.844Z,15.40
2019-02-14T11:55:09.999Z,17.70
2019-02-14T11:57:38.481Z,14.80
2019-02-14T12:00:19.962Z,16.83
2019-02-14T12:02:55.092Z,12.77
2019-02-14T12:05:18.581Z,16.73
2019-02-14T12:07:46.983Z,10.30
2019-02-14T12:10:15.396Z,10.97
2019-02-14T12:12:43.789Z,13.93
2019-02-14T12:15:13.450Z,13.80
2019-02-14T12:17:41.881Z,14.57
2019-02-14T12:20:16.961Z,15.73
2019-02-14T12:22:47.167Z,13.57
2019-02-14T12:25:32.433Z,13.73
2019-02-14T12:28:00.829Z,17.93
2019-02-14T12:30:29.242Z,16.10
2019-02-14T12:32:57.652Z,14.20
2019-02-14T12:35:26.064Z,13.10
2019-02-14T12:37:55.439Z,22.97
2019-02-14T12:40:24.333Z,12.70
2019-02-14T12:42:52.728Z,16.37
2019-02-14T12:45:25.743Z,18.03
2019-02-14T12:47:53.807Z,11.20
2019-02-14T12:50:22.223Z,13.93
2019-02-14T12:52:50.636Z,13.70
2019-02-14T12:55:19.047Z,14.93
2019-02-14T12:57:47.437Z,12.90
2019-02-14T13:00:21.143Z,10.90
2019-02-14T13:02:49.531Z,19.43
2019-02-14T13:05:17.953Z,20.00
2019-02-14T13:07:46.347Z,9.73
2019-02-14T13:10:16.693Z,10.97
2019-02-14T13:12:45.104Z,11.23
2019-02-14T13:15:25.301Z,14.03
2019-02-14T13:17:53.724Z,16.27
2019-02-14T13:20:22.244Z,13.87
2019-02-14T13:22:50.998Z,16.43
2019-02-14T13:25:19.390Z,8.13
2019-02-14T13:27:47.794Z,10.13
2019-02-14T13:30:24.745Z,12.53
2019-02-14T13:32:53.228Z,11.13
2019-02-14T13:35:21.627Z,11.13
2019-02-14T13:37:50.113Z,8.53
2019-02-14T13:40:18.512Z,16.03
2019-02-14T13:42:46.919Z,14.70
2019-02-14T13:45:21.246Z,11.00
2019-02-14T13:47:50.058Z,9.77
2019-02-14T13:50:18.431Z,9.67
2019-02-14T13:52:46.856Z,9.23
2019-02-14T13:55:15.330Z,13.90
2019-02-14T13:57:43.747Z,19.90
2019-02-14T14:00:22.580Z,13.63
2019-02-14T14:02:51.027Z,8.00
2019-02-14T14:05:19.427Z,10.43
2019-02-14T14:07:47.826Z,9.80
2019-02-14T14:10:16.221Z,12.20
2019-02-14T14:12:44.634Z,10.20
2019-02-14T14:15:13.410Z,13.00
2019-02-14T14:17:41.820Z,11.17
2019-02-14T14:20:10.217Z,10.83
2019-02-14T14:22:38.630Z,9.37
2019-02-14T14:25:08.775Z,14.03
2019-02-14T14:27:37.199Z,13.20
2019-02-14T14:30:10.474Z,11.30
2019-02-14T14:32:38.895Z,9.80
2019-02-14T14:35:10.866Z,14.00
2019-02-14T14:37:39.150Z,9.20
2019-02-14T14:40:13.444Z,11.93
2019-02-14T14:42:52.360Z,10.70
2019-02-14T14:45:39.021Z,10.53
2019-02-14T14:48:09.204Z,13.50
2019-02-14T14:50:37.590Z,13.07
2019-02-14T14:53:07.538Z,12.63
2019-02-14T14:55:36.099Z,10.97
2019-02-14T14:58:04.515Z,11.57
2019-02-14T15:00:32.933Z,13.47
2019-02-14T15:03:01.342Z,14.20
2019-02-14T15:05:29.805Z,13.43
2019-02-14T15:07:58.219Z,14.53
2019-02-14T15:10:26.619Z,15.57
2019-02-14T15:12:55.037Z,13.80
2019-02-14T15:15:23.447Z,10.73
2019-02-14T15:17:51.891Z,9.40
2019-02-14T15:20:20.329Z,12.17
2019-02-14T15:22:48.743Z,13.53
2019-02-14T15:25:17.145Z,18.20
2019-02-14T15:27:45.560Z,20.53
2019-02-14T15:30:13.969Z,14.27
2019-02-14T15:32:42.379Z,16.87
2019-02-14T15:35:10.779Z,17.73
2019-02-14T15:37:39.195Z,16.37
2019-02-14T15:40:09.991Z,16.47
2019-02-14T15:42:38.547Z,15.30
2019-02-14T15:45:07.776Z,19.77
2019-02-14T15:47:36.209Z,16.37
2019-02-14T15:50:08.869Z,19.03
2019-02-14T15:52:37.198Z,19.10
2019-02-14T15:55:07.661Z,11.03
2019-02-14T15:57:36.063Z,18.07
2019-02-14T16:00:12.330Z,18.50
2019-02-14T16:02:40.771Z,13.03
2019-02-14T16:05:10.782Z,16.93
2019-02-14T16:07:41.313Z,13.20
2019-02-14T16:10:18.179Z,15.63
2019-02-14T16:12:41.315Z,15.20
2019-02-14T16:15:10.075Z,12.60
2019-02-14T16:17:38.488Z,14.20
2019-02-14T16:20:08.277Z,13.13
2019-02-14T16:22:36.690Z,10.13
2019-02-14T16:25:07.014Z,16.33
2019-02-14T16:27:35.425Z,12.43
2019-02-14T16:30:06.626Z,12.27
2019-02-14T16:32:34.646Z,14.80
2019-02-14T16:35:03.211Z,12.50
2019-02-14T16:37:32.701Z,12.33
2019-02-14T16:40:01.095Z,10.37
2019-02-14T16:42:29.487Z,9.43
2019-02-14T16:44:57.892Z,8.00
2019-02-14T16:47:26.274Z,11.23
2019-02-14T16:49:54.700Z,14.03
2019-02-14T16:52:23.080Z,16.10
2019-02-14T16:54:51.516Z,8.87
2019-02-14T16:57:19.903Z,9.20
2019-02-14T16:59:48.330Z,12.27
2019-02-14T17:02:16.723Z,8.80
2019-02-14T17:04:45.135Z,10.47
2019-02-14T17:07:13.533Z,8.03
2019-02-14T17:09:41.931Z,6.93
2019-02-14T17:12:10.318Z,9.93
2019-02-14T17:14:38.722Z,9.20
2019-02-14T17:17:07.127Z,6.30
2019-02-14T17:19:35.533Z,7.17
2019-02-14T17:22:03.939Z,9.33
2019-02-14T17:24:32.347Z,6.27
2019-02-14T17:27:00.745Z,10.97
2019-02-14T17:29:29.150Z,17.00
2019-02-14T17:31:57.553Z,12.83
2019-02-14T17:34:25.962Z,5.00
2019-02-14T17:36:54.374Z,6.00
2019-02-14T17:39:23.049Z,4.60
2019-02-14T17:41:51.459Z,7.00
2019-02-14T17:44:19.852Z,6.03
2019-02-14T17:46:48.263Z,4.80
2019-02-14T17:49:17.130Z,7.17
2019-02-14T17:51:45.622Z,11.37
2019-02-14T17:54:14.033Z,5.43
2019-02-14T17:56:42.448Z,5.23
2019-02-14T17:59:10.850Z,9.43
2019-02-14T18:01:39.340Z,8.63
2019-02-14T18:04:07.729Z,6.23
2019-02-14T18:06:37.145Z,7.30
2019-02-14T18:09:06.615Z,9.50
2019-02-14T18:11:35.011Z,13.03
2019-02-14T18:14:03.434Z,12.93
2019-02-14T18:16:31.828Z,29.00
2019-02-14T18:19:01.184Z,147.77
2019-02-14T18:21:30.568Z,121.60
2019-02-14T18:23:59.003Z,68.23
2019-02-14T18:26:27.402Z,26.73
2019-02-14T18:28:55.819Z,19.80
2019-02-14T18:31:24.223Z,21.03
2019-02-14T18:33:52.639Z,34.87
2019-02-14T18:36:21.043Z,15.43
2019-02-14T18:38:49.470Z,20.40
2019-02-14T18:41:17.864Z,20.90
2019-02-14T18:43:46.265Z,14.80
2019-02-14T18:46:14.671Z,17.33
2019-02-14T18:48:43.134Z,15.73
2019-02-14T18:51:11.562Z,16.43
2019-02-14T18:53:40.019Z,15.90
2019-02-14T18:56:08.443Z,13.97
2019-02-14T18:58:36.861Z,13.80
2019-02-14T19:01:05.255Z,25.37
2019-02-14T19:03:33.675Z,27.20
2019-02-14T19:06:02.090Z,23.20
2019-02-14T19:08:30.500Z,106.40
2019-02-14T19:10:58.920Z,28.67
2019-02-14T19:13:27.413Z,24.17
2019-02-14T19:15:55.809Z,17.17
2019-02-14T19:18:25.136Z,15.70
2019-02-14T19:20:54.280Z,16.10
2019-02-14T19:23:24.964Z,17.37
2019-02-14T19:25:53.490Z,16.17
2019-02-14T19:28:22.046Z,15.70
2019-02-14T19:30:50.517Z,21.87
2019-02-14T19:33:19.010Z,26.93
2019-02-14T19:35:47.463Z,19.60
2019-02-14T19:38:15.879Z,23.03
2019-02-14T19:40:44.292Z,18.53
2019-02-14T19:43:12.765Z,16.43
2019-02-14T19:45:41.180Z,14.50
2019-02-14T19:48:09.601Z,14.50
2019-02-14T19:50:38.045Z,12.27
2019-02-14T19:53:06.506Z,15.40
2019-02-14T19:55:34.916Z,14.40
2019-02-14T19:58:03.338Z,27.70
2019-02-14T20:00:31.749Z,64.23
2019-02-14T20:03:00.130Z,152.80
2019-02-14T20:05:28.563Z,96.03
2019-02-14T20:07:57.034Z,30.80
2019-02-14T20:10:25.450Z,25.13
2019-02-14T20:12:53.873Z,19.43
2019-02-14T20:15:22.296Z,16.77
2019-02-14T20:17:50.709Z,22.90
2019-02-14T20:20:19.129Z,18.10
2019-02-14T20:22:47.532Z,20.80
2019-02-14T20:25:25.104Z,18.43
2019-02-14T20:27:53.500Z,19.17
2019-02-14T20:30:22.015Z,24.53
2019-02-14T20:32:50.456Z,14.83
2019-02-14T20:35:18.919Z,15.63
2019-02-14T20:37:47.314Z,18.97
2019-02-14T20:40:15.806Z,21.60
2019-02-14T20:42:44.203Z,21.43
2019-02-14T20:45:14.075Z,24.60
2019-02-14T20:47:42.545Z,22.97
2019-02-14T20:50:13.353Z,21.40
2019-02-14T20:52:41.764Z,17.70
2019-02-14T20:55:13.080Z,18.20
2019-02-14T20:57:41.479Z,17.47
2019-02-14T21:00:16.043Z,16.13
2019-02-14T21:02:44.508Z,22.50
2019-02-14T21:05:13.007Z,27.53
2019-02-14T21:07:41.421Z,17.77
2019-02-14T21:10:09.834Z,21.83
2019-02-14T21:12:38.313Z,22.73
2019-02-14T21:15:08.759Z,19.70
2019-02-14T21:17:37.159Z,22.13
2019-02-14T21:20:13.608Z,24.57
2019-02-14T21:22:42.056Z,25.40
2019-02-14T21:25:10.491Z,25.97
2019-02-14T21:27:38.905Z,24.90
2019-02-14T21:30:13.739Z,23.37
2019-02-14T21:32:42.198Z,24.23
2019-02-14T21:35:10.638Z,20.53
2019-02-14T21:37:39.109Z,28.10
2019-02-14T21:40:12.440Z,21.03
2019-02-14T21:42:40.858Z,21.53
2019-02-14T21:45:11.917Z,29.30
2019-02-14T21:47:40.390Z,21.40
2019-02-14T21:50:11.086Z,34.57
2019-02-14T21:52:41.149Z,24.97
2019-02-14T21:55:11.658Z,24.23
2019-02-14T21:57:40.058Z,28.17
2019-02-14T22:00:11.571Z,20.47
2019-02-14T22:02:40.040Z,24.73
2019-02-14T22:05:10.088Z,22.30
2019-02-14T22:07:38.482Z,26.03
2019-02-14T22:10:12.184Z,28.13
2019-02-14T22:12:42.680Z,29.00
2019-02-14T22:15:13.379Z,35.77
2019-02-14T22:17:41.850Z,25.57
2019-02-14T22:20:10.330Z,21.80
2019-02-14T22:22:38.798Z,21.80
2019-02-14T22:25:09.854Z,19.57
2019-02-14T22:27:38.532Z,22.10
2019-02-14T22:30:11.666Z,24.13
2019-02-14T22:32:40.063Z,22.20
2019-02-14T22:35:08.618Z,42.23
2019-02-14T22:37:37.015Z,25.63
2019-02-14T22:40:08.372Z,24.10
2019-02-14T22:42:36.847Z,24.80
2019-02-14T22:45:08.471Z,25.10
2019-02-14T22:47:36.949Z,24.83
2019-02-14T22:50:07.504Z,31.50
2019-02-14T22:52:35.894Z,25.70
2019-02-14T22:55:06.547Z,30.03
2019-02-14T22:57:34.940Z,29.17
2019-02-14T23:00:04.903Z,25.93
2019-02-14T23:02:33.299Z,24.23
2019-02-14T23:05:01.707Z,26.27
2019-02-14T23:07:30.119Z,23.23
2019-02-14T23:09:58.511Z,26.00
2019-02-14T23:12:26.921Z,23.40
2019-02-14T23:14:55.329Z,22.80
2019-02-14T23:17:23.765Z,25.23
2019-02-14T23:19:52.159Z,26.87
2019-02-14T23:22:20.583Z,23.97
2019-02-14T23:24:48.982Z,24.33
2019-02-14T23:27:17.407Z,26.70
2019-02-14T23:29:45.804Z,28.03
2019-02-14T23:32:14.279Z,27.87
2019-02-14T23:34:42.683Z,30.00
2019-02-14T23:37:11.110Z,33.47
2019-02-14T23:39:39.502Z,32.17
2019-02-14T23:42:07.916Z,29.03
2019-02-14T23:44:36.340Z,39.10
2019-02-14T23:47:04.745Z,31.37
2019-02-14T23:49:33.147Z,28.93
2019-02-14T23:52:01.550Z,31.40
2019-02-14T23:54:29.977Z,29.13
2019-02-14T23:56:58.406Z,32.67
2019-02-14T23:59:26.811Z,34.80
